Time;durP1;ratioP1;P1;durP2;ratioP2;P2;SDS_P1;SDS_P2;PMS_P1;PMS_P2;Temp;Humidity;BMP_temperature;BMP_pressure;BME280_temperature;BME280_humidity;BME280_pressure;Samples;Min_cycle;Max_cycle;Signal;HPM_P1;HPM_P2
2022/06/20 00:02:07;;;;;;;4.20;3.80;;;22.90;66.80;;;;;;5051574;28;20649;-84
2022/06/20 00:04:33;;;;;;;7.10;4.37;;;23.00;66.90;;;;;;5051601;28;20618;-84
2022/06/20 00:07:00;;;;;;;3.83;3.50;;;22.90;67.60;;;;;;5050571;28;21298;-82
2022/06/20 00:09:27;;;;;;;4.73;4.37;;;22.90;67.70;;;;;;5050892;28;20634;-84
2022/06/20 00:11:55;;;;;;;5.10;3.40;;;22.90;67.70;;;;;;5050900;28;21126;-84
2022/06/20 00:14:24;;;;;;;4.60;3.77;;;22.90;68.20;;;;;;5051169;28;20610;-83
2022/06/20 00:16:52;;;;;;;5.47;4.57;;;22.80;69.70;;;;;;5050745;28;20660;-84
2022/06/20 00:19:20;;;;;;;4.37;3.80;;;22.60;69.90;;;;;;5051245;28;21312;-83
2022/06/20 00:21:48;;;;;;;4.23;3.93;;;22.60;69.80;;;;;;5049894;28;20610;-84
2022/06/20 00:24:15;;;;;;;4.27;3.97;;;22.70;68.60;;;;;;5050679;28;20602;-84
2022/06/20 00:26:42;;;;;;;5.90;3.77;;;22.80;69.80;;;;;;5050122;28;20629;-84
2022/06/20 00:29:12;;;;;;;5.50;4.20;;;22.80;69.10;;;;;;5050666;28;20641;-83
2022/06/20 00:31:41;;;;;;;4.63;3.70;;;22.80;71.00;;;;;;5050784;28;21104;-83
2022/06/20 00:34:10;;;;;;;6.00;3.97;;;22.50;70.80;;;;;;5050802;28;20611;-83
2022/06/20 00:36:38;;;;;;;5.10;4.70;;;22.50;70.50;;;;;;5049989;28;21206;-84
2022/06/20 00:39:05;;;;;;;4.40;3.37;;;22.30;72.00;;;;;;5050308;28;21164;-83
2022/06/20 00:41:35;;;;;;;6.30;4.70;;;22.30;72.70;;;;;;5050508;28;20617;-82
2022/06/20 00:44:03;;;;;;;6.00;4.87;;;22.30;72.90;;;;;;5050771;28;20610;-83
2022/06/20 00:46:35;;;;;;;6.13;4.10;;;22.30;72.80;;;;;;5050007;28;20606;-84
2022/06/20 00:49:09;;;;;;;5.20;4.27;;;22.20;72.90;;;;;;5051052;28;20644;-84
2022/06/20 00:51:40;;;;;;;5.63;3.80;;;22.30;72.90;;;;;;5050105;28;20621;-84
2022/06/20 00:54:19;;;;;;;4.43;4.13;;;22.30;72.90;;;;;;5050312;28;20618;-84
2022/06/20 00:57:02;;;;;;;4.53;4.13;;;22.30;74.30;;;;;;5049907;28;20722;-83
2022/06/20 00:59:33;;;;;;;4.07;3.77;;;22.40;74.30;;;;;;5050090;28;20672;-82
2022/06/20 01:02:00;;;;;;;4.17;3.83;;;22.40;73.80;;;;;;5050084;28;20655;-84
2022/06/20 01:04:32;;;;;;;4.00;3.70;;;22.50;73.50;;;;;;5049465;28;21557;-84
2022/06/20 01:07:03;;;;;;;6.07;4.67;;;22.50;73.80;;;;;;5049268;28;21264;-88
2022/06/20 01:09:35;;;;;;;7.90;7.20;;;22.50;84.70;;;;;;5051142;28;20691;-87
2022/06/20 01:12:03;;;;;;;6.33;5.43;;;22.40;92.80;;;;;;5050987;28;20622;-87
2022/06/20 01:14:35;;;;;;;4.80;4.33;;;22.40;96.00;;;;;;5050268;28;20610;-89
2022/06/20 01:17:06;;;;;;;5.20;4.70;;;22.20;99.90;;;;;;5050351;28;20733;-89
2022/06/20 01:19:48;;;;;;;6.90;6.17;;;21.90;99.90;;;;;;5050725;28;20999;-86
2022/06/20 01:22:27;;;;;;;6.77;6.07;;;21.80;99.90;;;;;;5049097;28;20732;-88
2022/06/20 01:25:05;;;;;;;6.13;5.23;;;21.70;99.90;;;;;;5050168;28;20629;-88
2022/06/20 01:27:39;;;;;;;5.03;4.40;;;21.50;99.90;;;;;;5050419;28;20613;-88
2022/06/20 01:30:07;;;;;;;6.07;4.80;;;21.20;99.90;;;;;;5050089;28;21110;-88
2022/06/20 01:32:37;;;;;;;6.07;4.77;;;21.20;99.90;;;;;;5049993;28;20996;-87
2022/06/20 01:35:08;;;;;;;4.90;4.50;;;21.10;99.90;;;;;;5049961;28;20613;-87
2022/06/20 01:37:39;;;;;;;5.80;5.27;;;21.10;99.90;;;;;;5049781;28;20625;-88
2022/06/20 01:40:10;;;;;;;5.80;5.20;;;21.10;99.90;;;;;;5049644;28;20950;-88
2022/06/20 01:42:40;;;;;;;10.30;6.07;;;21.00;99.90;;;;;;5050116;28;20606;-88
2022/06/20 01:47:54;;;;;;;6.50;5.90;;;21.10;99.90;;;;;;5048608;28;20621;-87
2022/06/20 01:50:23;;;;;;;7.07;6.30;;;20.90;99.90;;;;;;5049674;28;20670;-86
2022/06/20 01:52:50;;;;;;;5.50;5.00;;;21.10;99.90;;;;;;5049487;28;20614;-87
2022/06/20 01:55:21;;;;;;;7.47;5.23;;;21.00;99.90;;;;;;5049596;28;20638;-86
2022/06/20 01:57:53;;;;;;;5.47;4.80;;;21.00;99.90;;;;;;5048923;28;20630;-87
2022/06/20 02:00:22;;;;;;;4.90;4.40;;;20.90;99.90;;;;;;5048987;28;20622;-87
2022/06/20 02:02:51;;;;;;;5.53;4.93;;;20.90;99.90;;;;;;5049505;28;20684;-86
2022/06/20 02:05:21;;;;;;;5.97;5.47;;;20.90;99.90;;;;;;5049211;28;20636;-87
2022/06/20 02:07:51;;;;;;;5.80;5.30;;;20.90;99.90;;;;;;5048851;28;21195;-89
2022/06/20 02:10:24;;;;;;;5.83;4.63;;;20.90;99.90;;;;;;5049392;28;20638;-86
2022/06/20 02:12:54;;;;;;;6.30;5.70;;;20.90;99.90;;;;;;5049058;28;20617;-87
2022/06/20 02:15:22;;;;;;;5.17;4.70;;;21.00;99.90;;;;;;5049714;28;20613;-88
2022/06/20 02:17:51;;;;;;;5.77;5.00;;;21.00;99.90;;;;;;5049104;28;21262;-85
2022/06/20 02:20:22;;;;;;;6.00;5.40;;;21.10;99.90;;;;;;5049647;28;20626;-87
2022/06/20 02:22:54;;;;;;;8.40;6.17;;;21.20;99.90;;;;;;5047576;28;21239;-87
2022/06/20 02:25:25;;;;;;;6.80;6.13;;;21.20;99.90;;;;;;5048520;28;20626;-88
2022/06/20 02:27:57;;;;;;;8.50;6.00;;;21.30;99.90;;;;;;5048609;28;21100;-89
2022/06/20 02:30:25;;;;;;;5.33;4.83;;;21.40;99.90;;;;;;5048934;28;20688;-87
2022/06/20 02:32:59;;;;;;;6.10;5.00;;;21.50;99.90;;;;;;5048553;28;20610;-87
2022/06/20 02:35:26;;;;;;;5.30;4.83;;;21.50;99.90;;;;;;5048600;28;21062;-88
2022/06/20 02:37:54;;;;;;;4.70;4.30;;;21.60;99.90;;;;;;5047970;28;20645;-86
2022/06/20 02:40:23;;;;;;;6.30;5.57;;;21.50;99.90;;;;;;5048776;28;20669;-89
2022/06/20 02:42:55;;;;;;;5.80;5.27;;;21.60;99.90;;;;;;5048974;28;20622;-88
2022/06/20 02:45:23;;;;;;;5.53;4.17;;;21.50;99.90;;;;;;5048820;28;20630;-87
2022/06/20 02:47:53;;;;;;;5.63;5.13;;;21.70;99.90;;;;;;5048310;28;21458;-87
2022/06/20 02:50:23;;;;;;;5.33;4.83;;;21.80;99.90;;;;;;5048488;28;20646;-87
2022/06/20 02:52:54;;;;;;;5.70;4.97;;;21.50;99.90;;;;;;5048438;28;20595;-86
2022/06/20 02:55:22;;;;;;;7.10;5.50;;;21.40;99.90;;;;;;5048410;28;20699;-88
2022/06/20 02:57:55;;;;;;;4.30;3.90;;;21.00;99.90;;;;;;5048220;28;20618;-87
2022/06/20 03:00:27;;;;;;;4.90;4.07;;;20.90;99.90;;;;;;5048976;28;20606;-89
2022/06/20 03:03:02;;;;;;;3.90;3.60;;;20.80;99.90;;;;;;5048283;28;20719;-88
2022/06/20 03:05:30;;;;;;;4.97;4.57;;;20.60;99.90;;;;;;5049285;28;20614;-88
2022/06/20 03:07:57;;;;;;;4.97;4.47;;;20.70;99.90;;;;;;5049830;28;20747;-91
2022/06/20 03:10:29;;;;;;;4.27;3.30;;;20.50;99.90;;;;;;5048755;28;21072;-89
2022/06/20 03:12:58;;;;;;;4.07;3.30;;;20.40;99.90;;;;;;5049325;28;20962;-88
2022/06/20 03:15:26;;;;;;;4.60;4.13;;;20.50;99.90;;;;;;5048485;28;20605;-89
2022/06/20 03:17:57;;;;;;;5.27;4.27;;;20.50;99.90;;;;;;5047855;28;20632;-86
2022/06/20 03:20:25;;;;;;;7.10;4.00;;;20.40;99.90;;;;;;5048132;28;21029;-88
2022/06/20 03:23:02;;;;;;;6.47;4.40;;;20.30;99.90;;;;;;5048037;28;20630;-88
2022/06/20 03:25:29;;;;;;;4.53;4.10;;;20.40;99.90;;;;;;5047939;28;20990;-89
2022/06/20 03:27:58;;;;;;;3.63;3.37;;;20.30;99.90;;;;;;5047933;28;20716;-88
2022/06/20 03:30:29;;;;;;;7.53;4.23;;;20.30;99.90;;;;;;5049452;28;20645;-88
2022/06/20 03:32:58;;;;;;;5.53;4.50;;;20.30;99.90;;;;;;5049035;28;20610;-89
2022/06/20 03:35:30;;;;;;;6.77;3.93;;;20.20;99.90;;;;;;5051928;28;20615;-86
2022/06/20 03:37:59;;;;;;;9.10;4.40;;;20.20;99.90;;;;;;5048439;28;20603;-87
2022/06/20 03:40:26;;;;;;;5.80;3.67;;;20.20;99.90;;;;;;5048115;28;20618;-87
2022/06/20 03:42:55;;;;;;;3.77;2.97;;;20.20;99.90;;;;;;5048369;28;20683;-86
2022/06/20 03:45:28;;;;;;;5.37;4.03;;;20.10;99.90;;;;;;5048352;28;21124;-86
2022/06/20 03:48:00;;;;;;;4.03;3.57;;;20.00;99.90;;;;;;5047745;28;21305;-88
2022/06/20 03:50:36;;;;;;;4.63;3.40;;;19.70;99.90;;;;;;5048160;28;20635;-87
2022/06/20 03:53:08;;;;;;;3.50;3.20;;;19.80;99.90;;;;;;5048581;28;21281;-88
2022/06/20 03:55:41;;;;;;;4.13;3.83;;;19.70;99.90;;;;;;5048825;28;20622;-88
2022/06/20 03:58:14;;;;;;;3.23;2.97;;;19.60;99.90;;;;;;5048644;28;20614;-88
2022/06/20 04:00:49;;;;;;;6.30;4.27;;;19.60;99.90;;;;;;5049155;28;20706;-88
2022/06/20 04:03:21;;;;;;;4.37;3.63;;;19.60;99.90;;;;;;5047768;28;20667;-86
2022/06/20 04:05:53;;;;;;;4.43;3.47;;;19.40;99.90;;;;;;5047910;28;20729;-88
2022/06/20 04:10:57;;;;;;;6.30;3.77;;;19.30;99.90;;;;;;5048021;28;20707;-87
2022/06/20 04:11:16;;;;;;;4.10;3.80;;;19.40;99.90;;;;;;5047271;28;20670;-87
2022/06/20 04:13:53;;;;;;;5.73;5.30;;;19.40;99.90;;;;;;5047579;28;21119;-86
2022/06/20 04:16:27;;;;;;;4.30;3.73;;;19.40;99.90;;;;;;5047490;28;20624;-86
2022/06/20 04:19:09;;;;;;;3.50;3.20;;;19.50;99.90;;;;;;5046764;28;21115;-86
2022/06/20 04:21:41;;;;;;;7.30;4.47;;;19.30;99.90;;;;;;5048548;28;20992;-86
2022/06/20 04:24:15;;;;;;;4.70;3.60;;;19.20;99.90;;;;;;5051095;28;21031;-85
2022/06/20 04:26:51;;;;;;;4.83;3.80;;;19.30;99.90;;;;;;5050857;28;20633;-86
2022/06/20 04:29:22;;;;;;;4.80;3.83;;;19.20;99.90;;;;;;5051168;28;20625;-85
2022/06/20 04:31:53;;;;;;;5.17;4.73;;;19.30;99.90;;;;;;5050225;28;20687;-85
2022/06/20 04:34:26;;;;;;;4.17;3.80;;;19.40;99.90;;;;;;5050201;28;20724;-86
2022/06/20 04:36:57;;;;;;;3.87;3.50;;;19.50;99.90;;;;;;5051110;28;20648;-85
2022/06/20 04:39:29;;;;;;;6.50;5.97;;;19.50;99.90;;;;;;5050943;28;20695;-85
2022/06/20 04:42:01;;;;;;;5.07;4.50;;;19.40;99.90;;;;;;5050839;28;20716;-86
2022/06/20 04:44:35;;;;;;;5.43;4.40;;;19.40;99.90;;;;;;5051484;28;20952;-86
2022/06/20 04:47:20;;;;;;;4.53;4.13;;;19.30;99.90;;;;;;5048688;28;20687;-85
2022/06/20 04:49:47;;;;;;;5.00;4.23;;;19.30;99.90;;;;;;5050800;28;20633;-86
2022/06/20 04:52:22;;;;;;;4.50;4.07;;;19.30;99.90;;;;;;5051260;28;20657;-86
2022/06/20 04:54:49;;;;;;;4.10;3.70;;;19.20;99.90;;;;;;5050723;28;20708;-86
2022/06/20 04:57:16;;;;;;;5.07;4.30;;;19.40;99.90;;;;;;5049807;28;20712;-87
2022/06/20 04:59:44;;;;;;;4.67;4.23;;;19.50;99.90;;;;;;5050628;28;20622;-86
2022/06/20 05:02:16;;;;;;;3.80;3.40;;;19.60;99.90;;;;;;5050749;28;20657;-88
2022/06/20 05:04:46;;;;;;;4.07;3.67;;;19.60;99.90;;;;;;5050584;28;20657;-88
2022/06/20 05:07:21;;;;;;;7.17;4.07;;;19.40;99.90;;;;;;5050114;28;20622;-86
2022/06/20 05:09:54;;;;;;;3.93;3.60;;;19.40;99.90;;;;;;5049534;28;21213;-86
2022/06/20 05:12:28;;;;;;;4.80;4.40;;;19.40;99.90;;;;;;5050499;28;20653;-86
2022/06/20 05:15:02;;;;;;;4.37;3.93;;;19.40;99.90;;;;;;5050326;28;20649;-86
2022/06/20 05:17:32;;;;;;;6.63;4.33;;;19.40;99.90;;;;;;5049992;28;21076;-86
2022/06/20 05:20:02;;;;;;;4.17;3.30;;;19.40;99.90;;;;;;5050488;28;20607;-86
2022/06/20 05:22:34;;;;;;;4.30;3.90;;;19.40;99.90;;;;;;5050399;28;20628;-86
2022/06/20 05:25:07;;;;;;;5.53;3.80;;;19.50;99.90;;;;;;5050395;28;20634;-86
2022/06/20 05:27:43;;;;;;;4.87;3.00;;;19.60;99.90;;;;;;5049657;28;20603;-86
2022/06/20 05:30:17;;;;;;;5.10;4.60;;;19.60;99.90;;;;;;5049824;28;20772;-86
2022/06/20 05:32:55;;;;;;;4.30;3.90;;;19.50;99.90;;;;;;5048851;28;20636;-86
2022/06/20 05:35:25;;;;;;;4.13;3.83;;;19.60;99.90;;;;;;5049767;28;21152;-86
2022/06/20 05:37:56;;;;;;;4.10;3.70;;;19.50;99.90;;;;;;5049823;28;20937;-86
2022/06/20 05:40:27;;;;;;;4.10;3.70;;;19.50;99.90;;;;;;5050072;28;20703;-86
2022/06/20 05:42:54;;;;;;;4.17;3.77;;;19.40;99.90;;;;;;5049638;28;20657;-86
2022/06/20 05:45:26;;;;;;;5.83;4.10;;;19.40;99.90;;;;;;5049799;28;20688;-88
2022/06/20 05:47:58;;;;;;;4.57;3.77;;;19.40;99.90;;;;;;5049924;28;20652;-86
2022/06/20 05:50:45;;;;;;;5.53;3.80;;;19.40;99.90;;;;;;5049656;28;21440;-86
2022/06/20 05:53:16;;;;;;;3.93;3.57;;;19.40;99.90;;;;;;5050303;28;20625;-87
2022/06/20 05:55:46;;;;;;;4.57;4.10;;;19.60;99.90;;;;;;5048555;28;20679;-87
2022/06/20 05:58:18;;;;;;;4.20;3.90;;;19.70;99.90;;;;;;5049311;28;20680;-87
2022/06/20 06:00:47;;;;;;;4.60;4.30;;;19.80;99.90;;;;;;5049615;28;20977;-85
2022/06/20 06:03:19;;;;;;;5.93;5.43;;;19.80;99.90;;;;;;5049598;28;20653;-87
2022/06/20 06:05:50;;;;;;;5.13;4.33;;;19.80;99.90;;;;;;5049424;28;20606;-89
2022/06/20 06:08:25;;;;;;;5.90;4.97;;;19.80;99.90;;;;;;5049587;28;21011;-88
2022/06/20 06:11:00;;;;;;;4.93;4.53;;;19.90;99.90;;;;;;5049340;28;20652;-87
2022/06/20 06:13:36;;;;;;;6.87;5.20;;;19.90;99.90;;;;;;5049194;28;20609;-86
2022/06/20 06:19:00;;;;;;;6.27;4.93;;;19.90;99.90;;;;;;5049169;28;20609;-88
2022/06/20 06:21:28;;;;;;;6.23;5.63;;;20.00;99.90;;;;;;5049295;28;20630;-87
2022/06/20 06:23:56;;;;;;;6.33;5.73;;;20.20;99.90;;;;;;5049274;28;20714;-88
2022/06/20 06:26:23;;;;;;;5.20;4.80;;;20.20;99.90;;;;;;5048884;28;20626;-87
2022/06/20 06:28:51;;;;;;;6.60;5.60;;;20.20;99.90;;;;;;5049128;28;20644;-88
2022/06/20 06:31:22;;;;;;;5.73;4.87;;;20.20;99.90;;;;;;5049182;28;21143;-87
2022/06/20 06:33:57;;;;;;;4.73;4.33;;;20.30;99.90;;;;;;5048971;28;20679;-88
2022/06/20 06:36:30;;;;;;;6.00;5.40;;;20.40;99.90;;;;;;5048781;28;20659;-88
2022/06/20 06:39:03;;;;;;;6.03;4.80;;;20.60;99.90;;;;;;5048936;28;20646;-87
2022/06/20 06:41:34;;;;;;;5.07;4.53;;;20.80;99.90;;;;;;5048835;28;20626;-86
2022/06/20 06:44:05;;;;;;;6.77;5.37;;;21.00;99.90;;;;;;5048253;28;20687;-87
2022/06/20 06:46:36;;;;;;;5.17;4.70;;;21.00;99.90;;;;;;5048875;28;20752;-87
2022/06/20 06:49:24;;;;;;;7.60;6.87;;;21.10;99.90;;;;;;5048985;28;20653;-87
2022/06/20 06:51:59;;;;;;;6.87;5.30;;;21.20;99.90;;;;;;5048044;28;20646;-87
2022/06/20 06:54:46;;;;;;;5.47;4.97;;;21.20;99.90;;;;;;5048719;28;21013;-86
2022/06/20 06:57:25;;;;;;;6.30;5.10;;;21.10;99.90;;;;;;5048494;28;20633;-88
2022/06/20 07:00:13;;;;;;;8.60;4.90;;;21.10;99.90;;;;;;5048329;28;20705;-88
2022/06/20 07:02:46;;;;;;;5.83;4.50;;;21.00;99.90;;;;;;5048911;28;20617;-88
2022/06/20 07:05:19;;;;;;;5.70;4.83;;;20.90;99.90;;;;;;5048160;28;21266;-87
2022/06/20 07:07:50;;;;;;;6.50;5.70;;;20.90;99.90;;;;;;5048225;28;20633;-87
2022/06/20 07:10:20;;;;;;;6.60;6.00;;;21.00;99.90;;;;;;5048362;28;20610;-87
2022/06/20 07:12:51;;;;;;;5.23;4.70;;;20.90;99.90;;;;;;5048251;28;20617;-86
2022/06/20 07:15:20;;;;;;;5.60;4.93;;;20.80;99.90;;;;;;5048421;28;20664;-86
2022/06/20 07:17:52;;;;;;;5.10;4.60;;;20.80;99.90;;;;;;5047855;28;20653;-85
2022/06/20 07:20:24;;;;;;;5.77;5.23;;;20.90;99.90;;;;;;5048614;28;20665;-85
2022/06/20 07:22:51;;;;;;;6.10;4.83;;;21.10;99.90;;;;;;5048497;28;20626;-85
2022/06/20 07:25:21;;;;;;;5.00;4.47;;;21.10;99.90;;;;;;5048146;28;20688;-85
2022/06/20 07:27:55;;;;;;;7.87;5.07;;;21.10;99.90;;;;;;5047812;28;20632;-85
2022/06/20 07:30:24;;;;;;;4.50;4.10;;;21.10;99.90;;;;;;5048124;28;20653;-85
2022/06/20 07:32:57;;;;;;;5.87;4.80;;;21.10;99.90;;;;;;5048570;28;20610;-84
2022/06/20 07:35:29;;;;;;;5.00;4.43;;;21.30;99.90;;;;;;5047971;28;20674;-85
2022/06/20 07:38:03;;;;;;;5.37;4.87;;;21.50;99.90;;;;;;5047244;28;20633;-84
2022/06/20 07:40:34;;;;;;;5.30;4.80;;;21.50;99.90;;;;;;5047792;28;20626;-85
2022/06/20 07:43:09;;;;;;;5.30;4.33;;;21.50;99.90;;;;;;5048507;28;20654;-85
2022/06/20 07:45:39;;;;;;;4.50;4.00;;;21.70;99.90;;;;;;5047668;28;20628;-84
2022/06/20 07:48:11;;;;;;;6.63;5.43;;;21.80;99.90;;;;;;5046927;28;20629;-85
2022/06/20 07:50:44;;;;;;;5.30;4.77;;;21.90;99.90;;;;;;5048008;28;20669;-84
2022/06/20 07:53:14;;;;;;;4.50;3.90;;;22.00;99.90;;;;;;5047736;28;20630;-84
2022/06/20 07:55:47;;;;;;;6.40;4.90;;;22.00;99.90;;;;;;5046658;28;20713;-84
2022/06/20 07:58:18;;;;;;;4.90;4.50;;;22.20;99.90;;;;;;5051586;28;20712;-84
2022/06/20 08:00:51;;;;;;;5.60;5.10;;;22.40;99.90;;;;;;5051341;28;20717;-84
2022/06/20 08:03:25;;;;;;;5.97;5.47;;;22.50;99.90;;;;;;5051750;28;20614;-84
2022/06/20 08:05:58;;;;;;;4.43;4.03;;;22.60;99.90;;;;;;5051050;28;20674;-86
2022/06/20 08:08:30;;;;;;;5.20;4.70;;;22.70;99.90;;;;;;5051493;28;20709;-85
2022/06/20 08:11:03;;;;;;;4.60;4.20;;;22.80;99.90;;;;;;5051025;28;20765;-84
2022/06/20 08:13:36;;;;;;;4.60;4.20;;;22.90;99.90;;;;;;5051337;28;20686;-86
2022/06/20 08:16:08;;;;;;;4.50;4.10;;;23.00;99.90;;;;;;5050669;28;20606;-85
2022/06/20 08:18:35;;;;;;;5.30;4.10;;;23.10;99.90;;;;;;5051160;28;21076;-84
2022/06/20 08:21:10;;;;;;;4.40;4.00;;;23.30;99.90;;;;;;5051924;28;20727;-85
2022/06/20 08:23:43;;;;;;;4.40;4.00;;;23.60;99.90;;;;;;5050697;28;20653;-85
2022/06/20 08:26:16;;;;;;;3.13;2.93;;;23.60;99.90;;;;;;5050512;28;20720;-85
2022/06/20 08:28:50;;;;;;;4.53;4.13;;;23.60;99.90;;;;;;5051263;28;20618;-85
2022/06/20 08:31:25;;;;;;;3.83;3.50;;;23.80;99.90;;;;;;5051148;28;20649;-84
2022/06/20 08:33:57;;;;;;;5.47;4.60;;;23.90;99.90;;;;;;5050639;28;20648;-85
2022/06/20 08:36:34;;;;;;;5.13;4.60;;;24.00;99.90;;;;;;5050787;28;21167;-85
2022/06/20 08:39:08;;;;;;;4.87;4.40;;;23.90;99.90;;;;;;5050972;28;20649;-85
2022/06/20 08:42:09;;;;;;;5.57;5.03;;;23.90;99.90;;;;;;5051250;28;20622;-86
2022/06/20 08:45:19;;;;;;;3.20;2.90;;;24.10;99.30;;;;;;5050814;28;20617;-85
2022/06/20 08:48:22;;;;;;;3.63;3.33;;;24.30;98.50;;;;;;5049978;28;21262;-85
2022/06/20 08:51:27;;;;;;;5.90;4.67;;;24.40;99.30;;;;;;5050782;28;20621;-85
2022/06/20 08:54:30;;;;;;;3.60;3.30;;;24.40;98.40;;;;;;5050658;28;20775;-86
2022/06/20 08:57:14;;;;;;;3.87;3.57;;;24.20;96.40;;;;;;5048686;28;20645;-86
2022/06/20 09:00:03;;;;;;;3.93;3.53;;;24.40;97.50;;;;;;5050744;28;20614;-85
2022/06/20 09:03:00;;;;;;;3.77;3.20;;;24.40;97.10;;;;;;5050666;28;20946;-85
2022/06/20 09:05:55;;;;;;;4.90;4.40;;;24.30;97.50;;;;;;5052811;28;21249;-86
2022/06/20 09:08:41;;;;;;;3.47;3.27;;;24.70;96.50;;;;;;5050210;28;20693;-86
2022/06/20 09:11:33;;;;;;;4.03;3.63;;;25.00;98.20;;;;;;5049938;28;21054;-84
2022/06/20 09:14:18;;;;;;;7.33;3.77;;;24.90;96.00;;;;;;5050457;28;20707;-86
2022/06/20 09:16:55;;;;;;;5.13;4.73;;;25.00;95.80;;;;;;5049615;28;20620;-87
2022/06/20 09:19:43;;;;;;;4.67;4.10;;;25.20;97.20;;;;;;5050151;28;20622;-86
2022/06/20 09:22:23;;;;;;;4.20;3.90;;;25.40;94.90;;;;;;5050309;28;20673;-84
2022/06/20 09:25:02;;;;;;;5.20;4.70;;;25.50;95.90;;;;;;5049726;28;20675;-86
2022/06/20 09:27:42;;;;;;;6.03;4.00;;;25.50;95.60;;;;;;5048912;28;20634;-85
2022/06/20 09:30:14;;;;;;;4.20;3.80;;;25.70;95.40;;;;;;5048500;28;21195;-86
2022/06/20 09:33:11;;;;;;;5.13;3.50;;;25.80;94.90;;;;;;5048770;28;20712;-86
2022/06/20 09:36:03;;;;;;;3.67;3.37;;;25.90;95.40;;;;;;5048729;28;20620;-86
2022/06/20 09:38:45;;;;;;;4.33;3.93;;;26.00;92.60;;;;;;5048668;28;20738;-85
2022/06/20 09:41:23;;;;;;;3.57;3.27;;;26.10;92.40;;;;;;5048604;28;20672;-86
2022/06/20 09:44:04;;;;;;;5.37;3.50;;;26.10;93.50;;;;;;5049043;28;20646;-85
2022/06/20 09:46:37;;;;;;;4.00;3.70;;;26.10;92.50;;;;;;5048176;28;20653;-86
2022/06/20 09:49:19;;;;;;;6.47;4.30;;;25.90;94.30;;;;;;5048285;28;20634;-85
2022/06/20 09:51:56;;;;;;;3.90;3.60;;;26.10;95.10;;;;;;5048812;28;20761;-86
2022/06/20 09:54:30;;;;;;;4.33;4.03;;;26.00;94.10;;;;;;5048538;28;21155;-85
2022/06/20 09:57:28;;;;;;;5.03;4.53;;;25.90;94.50;;;;;;5046633;28;20649;-85
2022/06/20 10:00:05;;;;;;;4.20;3.90;;;25.90;93.50;;;;;;5048326;28;20637;-86
2022/06/20 10:02:41;;;;;;;3.47;3.17;;;25.90;91.50;;;;;;5048385;28;20614;-85
2022/06/20 10:05:27;;;;;;;4.33;3.97;;;25.90;91.10;;;;;;5048146;28;20733;-85
2022/06/20 10:07:59;;;;;;;4.10;3.60;;;26.10;90.40;;;;;;5046828;28;21160;-85
2022/06/20 10:10:36;;;;;;;6.50;5.60;;;26.00;87.90;;;;;;5048901;28;20704;-85
2022/06/20 10:13:10;;;;;;;4.53;4.10;;;26.10;90.70;;;;;;5048009;28;20649;-86
2022/06/20 10:15:44;;;;;;;3.80;3.30;;;26.30;90.20;;;;;;5048071;28;20646;-85
2022/06/20 10:18:24;;;;;;;3.27;3.00;;;26.40;88.10;;;;;;5047630;28;20617;-85
2022/06/20 10:20:57;;;;;;;4.13;3.80;;;26.70;85.90;;;;;;5047658;28;21210;-86
2022/06/20 10:23:41;;;;;;;4.20;3.90;;;27.10;88.50;;;;;;5047990;28;20683;-86
2022/06/20 10:26:22;;;;;;;4.37;3.20;;;27.50;83.80;;;;;;5009492;28;1106736;-85
2022/06/20 10:28:53;;;;;;;4.10;3.83;;;27.70;82.30;;;;;;5048613;28;20682;-86
2022/06/20 10:31:38;;;;;;;3.80;3.47;;;27.80;84.80;;;;;;5049035;28;21157;-85
2022/06/20 10:34:10;;;;;;;4.00;3.70;;;28.00;79.70;;;;;;5048370;28;20740;-85
2022/06/20 10:36:49;;;;;;;3.73;3.40;;;27.70;79.60;;;;;;5048064;28;21198;-85
2022/06/20 10:39:35;;;;;;;6.17;3.77;;;27.50;81.60;;;;;;5048464;28;20633;-86
2022/06/20 10:42:20;;;;;;;4.10;3.30;;;27.30;82.90;;;;;;5048714;28;20650;-86
2022/06/20 10:45:02;;;;;;;3.07;2.80;;;27.20;82.30;;;;;;5048813;28;20614;-86
2022/06/20 10:47:39;;;;;;;4.40;3.40;;;27.10;80.50;;;;;;5047581;28;20652;-85
2022/06/20 10:50:22;;;;;;;3.00;2.80;;;26.90;82.50;;;;;;5048747;28;20617;-84
2022/06/20 10:53:02;;;;;;;3.50;3.20;;;26.70;80.80;;;;;;5053924;28;20761;-84
2022/06/20 10:55:41;;;;;;;2.57;2.37;;;26.50;80.10;;;;;;5048323;28;20638;-82
2022/06/20 10:58:19;;;;;;;2.40;2.20;;;26.70;79.00;;;;;;5048157;28;20622;-83
2022/06/20 11:00:50;;;;;;;2.67;2.47;;;27.20;75.80;;;;;;5048151;28;20717;-83
2022/06/20 11:03:44;;;;;;;2.30;2.20;;;27.80;79.70;;;;;;5048297;28;20712;-83
2022/06/20 11:06:25;;;;;;;2.30;2.10;;;28.00;74.60;;;;;;5049693;28;20630;-83
2022/06/20 11:08:58;;;;;;;2.90;2.23;;;28.10;74.20;;;;;;5048647;28;20618;-83
2022/06/20 11:11:37;;;;;;;2.30;2.20;;;28.50;74.80;;;;;;5048564;28;20649;-84
2022/06/20 11:14:11;;;;;;;2.90;2.33;;;28.90;70.80;;;;;;5048823;28;20617;-85
2022/06/20 11:16:44;;;;;;;2.80;2.60;;;29.00;65.60;;;;;;5047543;28;21245;-84
2022/06/20 11:19:27;;;;;;;2.83;2.60;;;29.00;66.20;;;;;;5048202;28;20679;-83
2022/06/20 11:22:06;;;;;;;2.40;2.10;;;29.30;66.10;;;;;;5048482;28;20720;-85
2022/06/20 11:24:43;;;;;;;2.23;2.03;;;29.30;66.20;;;;;;5048148;28;20667;-86
2022/06/20 11:27:50;;;;;;;2.43;2.23;;;29.10;63.20;;;;;;5047898;28;20649;-84
2022/06/20 11:30:22;;;;;;;2.03;1.93;;;28.80;65.80;;;;;;5056202;28;20681;-83
2022/06/20 11:36:14;;;;;;;2.87;2.67;;;28.00;65.00;;;;;;5050694;28;20622;-84
2022/06/20 11:39:02;;;;;;;2.17;2.07;;;27.90;69.50;;;;;;5052125;28;20626;-84
2022/06/20 11:41:36;;;;;;;2.40;2.20;;;28.30;68.70;;;;;;5051352;28;21171;-84
2022/06/20 11:44:26;;;;;;;3.00;2.80;;;28.50;68.60;;;;;;5052052;28;21060;-84
2022/06/20 11:47:27;;;;;;;2.37;2.17;;;28.70;68.10;;;;;;5054367;28;20640;-84
2022/06/20 11:50:16;;;;;;;2.80;2.60;;;28.70;65.80;;;;;;5051225;28;20779;-87
2022/06/20 11:52:53;;;;;;;3.00;2.80;;;28.00;68.70;;;;;;5051827;28;20662;-84
2022/06/20 11:55:28;;;;;;;3.10;2.80;;;27.80;71.70;;;;;;5052158;28;20691;-84
2022/06/20 11:57:59;;;;;;;2.60;2.50;;;27.20;73.40;;;;;;5049421;28;20619;-84
2022/06/20 12:00:33;;;;;;;3.63;3.27;;;26.90;74.90;;;;;;5051526;28;20613;-84
2022/06/20 12:03:08;;;;;;;5.13;3.57;;;26.90;75.80;;;;;;5051618;28;20622;-85
2022/06/20 12:05:44;;;;;;;2.50;2.40;;;27.20;77.40;;;;;;5051441;28;20645;-85
2022/06/20 12:08:23;;;;;;;2.53;2.33;;;27.40;75.20;;;;;;5051473;28;20691;-87
2022/06/20 12:10:55;;;;;;;3.30;2.83;;;27.30;73.30;;;;;;5051336;28;20618;-85
2022/06/20 12:13:44;;;;;;;2.47;2.20;;;27.60;70.00;;;;;;5051164;28;21228;-85
2022/06/20 12:16:25;;;;;;;2.93;2.30;;;28.10;71.30;;;;;;5051002;28;20679;-85
2022/06/20 12:24:40;;;;;;;1.97;1.77;;;26.20;69.60;;;;;;5051295;28;20594;-86
2022/06/20 12:27:11;;;;;;;1.83;1.73;;;25.50;71.50;;;;;;5051159;28;20658;-86
2022/06/20 12:29:38;;;;;;;2.10;1.43;;;25.20;72.80;;;;;;5051095;28;20618;-85
2022/06/20 12:32:13;;;;;;;1.30;1.20;;;25.20;72.40;;;;;;5051311;28;21203;-87
2022/06/20 12:34:47;;;;;;;1.40;1.30;;;25.30;73.90;;;;;;5051016;28;20621;-86
2022/06/20 12:37:27;;;;;;;1.50;1.40;;;25.10;72.70;;;;;;5050267;28;20664;-85
2022/06/20 12:40:00;;;;;;;1.50;1.40;;;25.00;75.60;;;;;;5050639;28;20617;-86
2022/06/20 12:42:35;;;;;;;1.80;1.70;;;24.80;74.80;;;;;;5030940;28;20615;-86
2022/06/20 12:45:28;;;;;;;2.43;2.23;;;25.10;75.10;;;;;;5031229;28;21019;-85
2022/06/20 12:48:08;;;;;;;3.30;2.67;;;26.40;76.80;;;;;;5030440;28;21172;-86
2022/06/20 12:50:48;;;;;;;3.87;2.87;;;27.10;73.60;;;;;;5030926;28;20662;-88
2022/06/20 12:53:32;;;;;;;3.10;2.90;;;29.40;72.60;;;;;;5031121;28;20653;-87
2022/06/20 12:56:10;;;;;;;3.17;2.97;;;30.80;67.40;;;;;;5028926;28;20630;-87
2022/06/20 12:59:06;;;;;;;2.63;2.20;;;30.00;66.00;;;;;;5030376;28;21212;-85
2022/06/20 13:01:39;;;;;;;6.10;2.30;;;30.10;67.10;;;;;;5030735;28;20617;-86
2022/06/20 13:04:28;;;;;;;3.20;2.70;;;29.30;63.20;;;;;;5030841;28;20603;-86
2022/06/20 13:07:32;;;;;;;2.70;2.50;;;29.00;65.70;;;;;;5029602;28;20858;-84
2022/06/20 13:10:18;;;;;;;2.80;2.60;;;29.70;68.50;;;;;;5030602;28;21148;-85
2022/06/20 13:13:21;;;;;;;2.60;2.30;;;31.00;67.40;;;;;;5030481;28;21083;-86
2022/06/20 13:15:57;;;;;;;3.13;2.90;;;31.80;61.90;;;;;;5020938;28;20724;-85
2022/06/20 13:18:45;;;;;;;2.87;2.67;;;32.60;60.20;;;;;;5030526;28;20618;-85
2022/06/20 13:21:31;;;;;;;2.37;2.20;;;33.50;58.20;;;;;;5030047;28;20638;-85
2022/06/20 13:24:12;;;;;;;3.00;2.60;;;32.90;58.50;;;;;;5030494;28;21302;-86
2022/06/20 13:26:47;;;;;;;3.93;3.13;;;32.60;58.40;;;;;;5029719;28;20694;-86
2022/06/20 13:29:27;;;;;;;3.43;3.13;;;31.80;59.70;;;;;;5030461;28;20654;-85
2022/06/20 13:32:03;;;;;;;3.80;3.47;;;31.50;59.60;;;;;;5029638;28;20634;-85
2022/06/20 13:34:45;;;;;;;3.53;3.23;;;30.40;60.00;;;;;;5030062;28;21176;-86
2022/06/20 13:37:31;;;;;;;3.83;3.57;;;29.00;63.70;;;;;;5029395;28;20964;-86
2022/06/20 13:40:11;;;;;;;3.70;3.40;;;27.60;67.50;;;;;;5044091;28;20645;-86
2022/06/20 13:42:45;;;;;;;3.60;3.33;;;26.50;70.70;;;;;;5030292;28;20707;-84